sensor_id;sensor_type;location;lat;lon;timestamp;pressure;altitude;pressure_sealevel;temperature;humidity
45763;BME280;37512;52.408;13.356;2023-02-02T00:03:38;100339.75;;;3.25;100.00
45763;BME280;37512;52.408;13.356;2023-02-02T00:07:40;100342.97;;;3.27;100.00
45763;BME280;37512;52.408;13.356;2023-02-02T00:11:43;100341.50;;;3.30;100.00
45763;BME280;37512;52.408;13.356;2023-02-02T00:15:44;100331.31;;;3.39;100.00
45763;BME280;37512;52.408;13.356;2023-02-02T00:19:46;100335.19;;;3.47;100.00
45763;BME280;37512;52.408;13.356;2023-02-02T00:23:49;100331.47;;;3.51;100.00
45763;BME280;37512;52.408;13.356;2023-02-02T00:27:50;100370.81;;;3.55;100.00
45763;BME280;37512;52.408;13.356;2023-02-02T00:31:52;100339.03;;;3.63;100.00
45763;BME280;37512;52.408;13.356;2023-02-02T00:35:54;100319.44;;;3.73;100.00
45763;BME280;37512;52.408;13.356;2023-02-02T00:39:56;100331.88;;;3.80;100.00
45763;BME280;37512;52.408;13.356;2023-02-02T00:43:57;100310.69;;;3.80;100.00
45763;BME280;37512;52.408;13.356;2023-02-02T00:48:17;100324.41;;;3.89;100.00
45763;BME280;37512;52.408;13.356;2023-02-02T00:52:19;100309.38;;;3.86;100.00
45763;BME280;37512;52.408;13.356;2023-02-02T00:56:20;100310.28;;;3.99;100.00
45763;BME280;37512;52.408;13.356;2023-02-02T01:00:24;100327.25;;;4.01;100.00
45763;BME280;37512;52.408;13.356;2023-02-02T01:04:26;100331.44;;;3.98;100.00
45763;BME280;37512;52.408;13.356;2023-02-02T01:08:27;100331.31;;;3.95;100.00
45763;BME280;37512;52.408;13.356;2023-02-02T01:12:29;100316.47;;;3.87;100.00
45763;BME280;37512;52.408;13.356;2023-02-02T01:16:30;100326.69;;;3.78;100.00
45763;BME280;37512;52.408;13.356;2023-02-02T01:20:32;100327.03;;;3.76;100.00
45763;BME280;37512;52.408;13.356;2023-02-02T01:24:33;100328.84;;;3.64;100.00
45763;BME280;37512;52.408;13.356;2023-02-02T01:28:36;100325.28;;;3.72;100.00
45763;BME280;37512;52.408;13.356;2023-02-02T01:32:37;100328.84;;;3.64;100.00
45763;BME280;37512;52.408;13.356;2023-02-02T01:36:39;100349.44;;;3.78;100.00
45763;BME280;37512;52.408;13.356;2023-02-02T01:49:16;100360.38;;;3.40;100.00
45763;BME280;37512;52.408;13.356;2023-02-02T01:53:19;100365.09;;;3.31;100.00
45763;BME280;37512;52.408;13.356;2023-02-02T01:57:28;100356.38;;;3.29;100.00
45763;BME280;37512;52.408;13.356;2023-02-02T02:01:31;100357.31;;;3.33;100.00
45763;BME280;37512;52.408;13.356;2023-02-02T02:05:35;100358.75;;;3.30;100.00
45763;BME280;37512;52.408;13.356;2023-02-02T02:09:38;100358.94;;;3.34;100.00
45763;BME280;37512;52.408;13.356;2023-02-02T02:13:40;100371.50;;;3.35;100.00
45763;BME280;37512;52.408;13.356;2023-02-02T02:18:07;100370.88;;;3.38;100.00
45763;BME280;37512;52.408;13.356;2023-02-02T02:22:16;100396.84;;;3.41;100.00
45763;BME280;37512;52.408;13.356;2023-02-02T02:27:06;100375.88;;;3.45;100.00
45763;BME280;37512;52.408;13.356;2023-02-02T02:35:53;100382.16;;;3.45;100.00
45763;BME280;37512;52.408;13.356;2023-02-02T02:40:05;100374.22;;;3.52;100.00
45763;BME280;37512;52.408;13.356;2023-02-02T02:44:10;100385.69;;;3.54;100.00
45763;BME280;37512;52.408;13.356;2023-02-02T02:48:13;100375.19;;;3.65;100.00
45763;BME280;37512;52.408;13.356;2023-02-02T02:52:15;100385.34;;;3.65;100.00
45763;BME280;37512;52.408;13.356;2023-02-02T02:56:23;100415.22;;;3.66;100.00
45763;BME280;37512;52.408;13.356;2023-02-02T03:00:46;100399.84;;;3.74;100.00
45763;BME280;37512;52.408;13.356;2023-02-02T03:09:12;100410.53;;;3.67;100.00
45763;BME280;37512;52.408;13.356;2023-02-02T03:13:15;100418.13;;;3.70;100.00
45763;BME280;37512;52.408;13.356;2023-02-02T03:17:17;100428.91;;;3.75;100.00
45763;BME280;37512;52.408;13.356;2023-02-02T03:21:19;100425.88;;;3.76;100.00
45763;BME280;37512;52.408;13.356;2023-02-02T03:25:20;100448.13;;;3.75;100.00
45763;BME280;37512;52.408;13.356;2023-02-02T03:29:24;100457.84;;;3.64;100.00
45763;BME280;37512;52.408;13.356;2023-02-02T03:33:26;100467.34;;;3.58;100.00
45763;BME280;37512;52.408;13.356;2023-02-02T03:37:27;100479.47;;;3.48;100.00
45763;BME280;37512;52.408;13.356;2023-02-02T03:41:29;100467.84;;;3.60;100.00
45763;BME280;37512;52.408;13.356;2023-02-02T03:45:31;100487.72;;;3.56;100.00
45763;BME280;37512;52.408;13.356;2023-02-02T03:49:35;100493.69;;;3.67;100.00
45763;BME280;37512;52.408;13.356;2023-02-02T03:53:37;100493.34;;;3.69;100.00
45763;BME280;37512;52.408;13.356;2023-02-02T03:57:39;100504.00;;;3.62;100.00
45763;BME280;37512;52.408;13.356;2023-02-02T04:01:40;100505.16;;;3.61;100.00
45763;BME280;37512;52.408;13.356;2023-02-02T04:05:42;100522.09;;;3.63;100.00
45763;BME280;37512;52.408;13.356;2023-02-02T04:09:43;100530.34;;;3.63;100.00
45763;BME280;37512;52.408;13.356;2023-02-02T04:13:45;100539.84;;;3.56;100.00
45763;BME280;37512;52.408;13.356;2023-02-02T04:17:46;100536.63;;;3.63;100.00
45763;BME280;37512;52.408;13.356;2023-02-02T04:21:48;100542.25;;;3.67;100.00
45763;BME280;37512;52.408;13.356;2023-02-02T04:25:50;100548.72;;;3.71;100.00
45763;BME280;37512;52.408;13.356;2023-02-02T04:29:52;100553.59;;;3.65;100.00
45763;BME280;37512;52.408;13.356;2023-02-02T04:33:53;100567.47;;;3.69;100.00
45763;BME280;37512;52.408;13.356;2023-02-02T04:37:54;100571.19;;;3.73;100.00
45763;BME280;37512;52.408;13.356;2023-02-02T04:41:56;100584.59;;;3.74;100.00
45763;BME280;37512;52.408;13.356;2023-02-02T04:45:58;100582.97;;;3.82;100.00
45763;BME280;37512;52.408;13.356;2023-02-02T04:49:59;100594.13;;;3.77;100.00
45763;BME280;37512;52.408;13.356;2023-02-02T04:54:01;100597.34;;;3.70;100.00
45763;BME280;37512;52.408;13.356;2023-02-02T04:58:03;100600.09;;;3.79;100.00
45763;BME280;37512;52.408;13.356;2023-02-02T05:02:04;100615.44;;;3.63;100.00
45763;BME280;37512;52.408;13.356;2023-02-02T05:06:06;100619.78;;;3.72;100.00
45763;BME280;37512;52.408;13.356;2023-02-02T05:10:08;100628.50;;;3.66;100.00
45763;BME280;37512;52.408;13.356;2023-02-02T05:14:10;100643.81;;;3.67;100.00
45763;BME280;37512;52.408;13.356;2023-02-02T05:18:12;100658.19;;;3.64;100.00
45763;BME280;37512;52.408;13.356;2023-02-02T05:22:13;100647.72;;;3.66;100.00
45763;BME280;37512;52.408;13.356;2023-02-02T05:26:18;100647.25;;;3.72;100.00
45763;BME280;37512;52.408;13.356;2023-02-02T05:30:21;100673.72;;;3.77;100.00
45763;BME280;37512;52.408;13.356;2023-02-02T05:34:22;100661.00;;;3.81;100.00
45763;BME280;37512;52.408;13.356;2023-02-02T05:38:24;100674.22;;;3.79;100.00
45763;BME280;37512;52.408;13.356;2023-02-02T05:42:25;100667.13;;;3.87;100.00
45763;BME280;37512;52.408;13.356;2023-02-02T05:46:27;100692.47;;;3.84;100.00
45763;BME280;37512;52.408;13.356;2023-02-02T05:50:28;100694.44;;;3.83;100.00
45763;BME280;37512;52.408;13.356;2023-02-02T05:54:30;100701.53;;;3.93;100.00
45763;BME280;37512;52.408;13.356;2023-02-02T05:58:31;100705.56;;;3.87;100.00
45763;BME280;37512;52.408;13.356;2023-02-02T06:02:33;100714.94;;;3.86;100.00
45763;BME280;37512;52.408;13.356;2023-02-02T06:06:34;100720.09;;;3.87;100.00
45763;BME280;37512;52.408;13.356;2023-02-02T06:10:39;100727.69;;;3.82;100.00
45763;BME280;37512;52.408;13.356;2023-02-02T06:14:41;100733.94;;;3.73;100.00
45763;BME280;37512;52.408;13.356;2023-02-02T06:18:42;100740.25;;;3.74;100.00
45763;BME280;37512;52.408;13.356;2023-02-02T06:22:45;100747.88;;;3.86;100.00
45763;BME280;37512;52.408;13.356;2023-02-02T06:26:46;100759.63;;;3.77;100.00
45763;BME280;37512;52.408;13.356;2023-02-02T06:30:48;100764.69;;;3.93;100.00
45763;BME280;37512;52.408;13.356;2023-02-02T06:34:49;100755.78;;;3.87;100.00
45763;BME280;37512;52.408;13.356;2023-02-02T06:38:53;100774.13;;;3.69;100.00
45763;BME280;37512;52.408;13.356;2023-02-02T06:42:56;100772.06;;;3.75;100.00
45763;BME280;37512;52.408;13.356;2023-02-02T06:46:58;100777.88;;;3.73;100.00
45763;BME280;37512;52.408;13.356;2023-02-02T06:51:00;100777.25;;;3.85;100.00
45763;BME280;37512;52.408;13.356;2023-02-02T06:55:01;100792.69;;;3.64;100.00
45763;BME280;37512;52.408;13.356;2023-02-02T06:59:03;100802.22;;;3.66;100.00
45763;BME280;37512;52.408;13.356;2023-02-02T07:03:07;100812.59;;;3.78;100.00
45763;BME280;37512;52.408;13.356;2023-02-02T07:07:09;100797.41;;;3.72;100.00
45763;BME280;37512;52.408;13.356;2023-02-02T07:11:10;100817.09;;;3.74;100.00
45763;BME280;37512;52.408;13.356;2023-02-02T07:15:16;100830.66;;;3.70;100.00
45763;BME280;37512;52.408;13.356;2023-02-02T07:19:18;100831.22;;;3.81;100.00
45763;BME280;37512;52.408;13.356;2023-02-02T07:23:19;100855.91;;;3.81;100.00
45763;BME280;37512;52.408;13.356;2023-02-02T07:27:21;100867.31;;;3.66;100.00
45763;BME280;37512;52.408;13.356;2023-02-02T07:31:24;100858.16;;;3.79;100.00
45763;BME280;37512;52.408;13.356;2023-02-02T07:35:27;100866.53;;;3.74;100.00
45763;BME280;37512;52.408;13.356;2023-02-02T07:39:28;100876.19;;;3.63;100.00
45763;BME280;37512;52.408;13.356;2023-02-02T07:43:30;100877.97;;;3.67;100.00
45763;BME280;37512;52.408;13.356;2023-02-02T07:47:31;100877.63;;;3.69;100.00
45763;BME280;37512;52.408;13.356;2023-02-02T07:51:33;100890.22;;;3.92;100.00
45763;BME280;37512;52.408;13.356;2023-02-02T07:55:37;100895.63;;;4.15;100.00
45763;BME280;37512;52.408;13.356;2023-02-02T07:59:39;100897.19;;;3.98;100.00
45763;BME280;37512;52.408;13.356;2023-02-02T08:03:41;100908.69;;;3.78;100.00
45763;BME280;37512;52.408;13.356;2023-02-02T08:07:45;100914.06;;;3.83;100.00
45763;BME280;37512;52.408;13.356;2023-02-02T08:11:47;100931.25;;;3.66;100.00
45763;BME280;37512;52.408;13.356;2023-02-02T08:15:48;100927.47;;;3.85;100.00
45763;BME280;37512;52.408;13.356;2023-02-02T08:19:50;100926.66;;;3.84;100.00
45763;BME280;37512;52.408;13.356;2023-02-02T08:23:52;100944.50;;;3.95;100.00
45763;BME280;37512;52.408;13.356;2023-02-02T08:27:55;100944.28;;;3.83;100.00
45763;BME280;37512;52.408;13.356;2023-02-02T08:31:58;100944.63;;;3.90;100.00
45763;BME280;37512;52.408;13.356;2023-02-02T08:36:01;100950.78;;;3.96;100.00
45763;BME280;37512;52.408;13.356;2023-02-02T08:40:03;100955.53;;;4.04;100.00
45763;BME280;37512;52.408;13.356;2023-02-02T08:44:09;100960.88;;;4.09;100.00
45763;BME280;37512;52.408;13.356;2023-02-02T08:48:12;100973.34;;;4.47;100.00
45763;BME280;37512;52.408;13.356;2023-02-02T08:52:14;100958.59;;;4.34;100.00
45763;BME280;37512;52.408;13.356;2023-02-02T08:56:18;100965.72;;;4.84;100.00
45763;BME280;37512;52.408;13.356;2023-02-02T09:00:20;100960.16;;;4.66;100.00
45763;BME280;37512;52.408;13.356;2023-02-02T09:04:22;100968.66;;;5.05;100.00
45763;BME280;37512;52.408;13.356;2023-02-02T09:08:23;100969.78;;;5.12;100.00
45763;BME280;37512;52.408;13.356;2023-02-02T09:12:25;100982.53;;;4.99;100.00
45763;BME280;37512;52.408;13.356;2023-02-02T09:16:27;100972.38;;;5.17;100.00
45763;BME280;37512;52.408;13.356;2023-02-02T09:20:28;101002.72;;;4.77;100.00
45763;BME280;37512;52.408;13.356;2023-02-02T09:24:30;101001.19;;;5.29;100.00
45763;BME280;37512;52.408;13.356;2023-02-02T09:28:31;101009.97;;;5.83;100.00
45763;BME280;37512;52.408;13.356;2023-02-02T09:32:33;101023.41;;;5.32;100.00
45763;BME280;37512;52.408;13.356;2023-02-02T09:36:36;101022.19;;;4.98;100.00
45763;BME280;37512;52.408;13.356;2023-02-02T09:40:39;101024.75;;;4.86;100.00
45763;BME280;37512;52.408;13.356;2023-02-02T09:44:57;101031.56;;;4.89;100.00
45763;BME280;37512;52.408;13.356;2023-02-02T09:49:04;101035.00;;;5.03;100.00
45763;BME280;37512;52.408;13.356;2023-02-02T09:53:21;101049.84;;;4.93;100.00
45763;BME280;37512;52.408;13.356;2023-02-02T09:57:32;101038.78;;;5.24;100.00
45763;BME280;37512;52.408;13.356;2023-02-02T10:01:39;101040.69;;;5.15;100.00
45763;BME280;37512;52.408;13.356;2023-02-02T10:05:53;101044.13;;;5.30;100.00
45763;BME280;37512;52.408;13.356;2023-02-02T10:09:59;101043.09;;;5.08;100.00
45763;BME280;37512;52.408;13.356;2023-02-02T10:14:10;101048.66;;;5.52;100.00
45763;BME280;37512;52.408;13.356;2023-02-02T10:18:29;101056.94;;;5.69;100.00
45763;BME280;37512;52.408;13.356;2023-02-02T10:22:35;101051.75;;;5.68;100.00
45763;BME280;37512;52.408;13.356;2023-02-02T10:26:38;101055.97;;;5.56;100.00
45763;BME280;37512;52.408;13.356;2023-02-02T10:30:58;101057.59;;;5.57;100.00
45763;BME280;37512;52.408;13.356;2023-02-02T10:35:28;101064.66;;;5.23;100.00
45763;BME280;37512;52.408;13.356;2023-02-02T10:47:57;101082.63;;;5.21;100.00
45763;BME280;37512;52.408;13.356;2023-02-02T10:52:23;101081.84;;;5.38;100.00
45763;BME280;37512;52.408;13.356;2023-02-02T10:56:34;101096.63;;;5.59;100.00
45763;BME280;37512;52.408;13.356;2023-02-02T11:04:51;101099.22;;;5.91;100.00
45763;BME280;37512;52.408;13.356;2023-02-02T11:09:35;101106.31;;;6.61;91.34
45763;BME280;37512;52.408;13.356;2023-02-02T11:18:27;101116.75;;;6.38;91.49
45763;BME280;37512;52.408;13.356;2023-02-02T11:22:34;101130.56;;;6.03;91.24
45763;BME280;37512;52.408;13.356;2023-02-02T11:26:52;101132.97;;;6.22;96.23
45763;BME280;37512;52.408;13.356;2023-02-02T11:30:57;101122.78;;;6.23;95.07
45763;BME280;37512;52.408;13.356;2023-02-02T11:39:19;101140.06;;;7.14;85.87
45763;BME280;37512;52.408;13.356;2023-02-02T11:47:31;101143.41;;;6.81;84.93
45763;BME280;37512;52.408;13.356;2023-02-02T11:51:34;101148.34;;;6.58;86.65
45763;BME280;37512;52.408;13.356;2023-02-02T11:55:35;101152.59;;;6.38;89.69
45763;BME280;37512;52.408;13.356;2023-02-02T11:59:41;101153.34;;;5.69;95.46
45763;BME280;37512;52.408;13.356;2023-02-02T12:03:46;101157.63;;;6.01;98.99
45763;BME280;37512;52.408;13.356;2023-02-02T12:07:48;101161.69;;;5.38;100.00
45763;BME280;37512;52.408;13.356;2023-02-02T12:12:04;101169.16;;;5.46;100.00
45763;BME280;37512;52.408;13.356;2023-02-02T12:29:41;101197.59;;;5.33;100.00
45763;BME280;37512;52.408;13.356;2023-02-02T13:08:01;101237.19;;;5.14;100.00
45763;BME280;37512;52.408;13.356;2023-02-02T13:12:13;101246.03;;;4.80;100.00
45763;BME280;37512;52.408;13.356;2023-02-02T13:16:17;101248.28;;;5.00;100.00
45763;BME280;37512;52.408;13.356;2023-02-02T13:20:44;101256.06;;;5.30;100.00
45763;BME280;37512;52.408;13.356;2023-02-02T13:24:50;101264.91;;;5.18;100.00
45763;BME280;37512;52.408;13.356;2023-02-02T13:29:10;101271.22;;;5.58;100.00
45763;BME280;37512;52.408;13.356;2023-02-02T13:33:28;101289.94;;;6.36;100.00
45763;BME280;37512;52.408;13.356;2023-02-02T13:41:47;101295.09;;;7.25;100.00
45763;BME280;37512;52.408;13.356;2023-02-02T13:50:04;101307.63;;;7.78;91.05
45763;BME280;37512;52.408;13.356;2023-02-02T14:02:24;101321.41;;;7.31;86.11
45763;BME280;37512;52.408;13.356;2023-02-02T14:06:55;101333.94;;;6.50;86.70
45763;BME280;37512;52.408;13.356;2023-02-02T14:11:02;101349.22;;;7.82;81.36
45763;BME280;37512;52.408;13.356;2023-02-02T14:15:05;101359.41;;;7.99;81.24
45763;BME280;37512;52.408;13.356;2023-02-02T14:19:16;101359.34;;;7.69;82.19
45763;BME280;37512;52.408;13.356;2023-02-02T14:24:43;101375.84;;;7.30;86.23
45763;BME280;37512;52.408;13.356;2023-02-02T14:28:39;101380.03;;;7.45;87.33
45763;BME280;37512;52.408;13.356;2023-02-02T14:32:41;101390.19;;;6.40;90.60
45763;BME280;37512;52.408;13.356;2023-02-02T14:37:33;101393.34;;;6.65;89.13
45763;BME280;37512;52.408;13.356;2023-02-02T14:41:34;101410.72;;;5.63;90.54
45763;BME280;37512;52.408;13.356;2023-02-02T14:50:25;101429.19;;;5.40;88.05
45763;BME280;37512;52.408;13.356;2023-02-02T14:54:29;101439.72;;;5.60;86.97
45763;BME280;37512;52.408;13.356;2023-02-02T14:58:53;101451.34;;;5.80;86.36
45763;BME280;37512;52.408;13.356;2023-02-02T15:03:32;101457.53;;;5.63;83.31
45763;BME280;37512;52.408;13.356;2023-02-02T15:07:37;101462.53;;;5.83;83.87
45763;BME280;37512;52.408;13.356;2023-02-02T15:16:24;101479.47;;;5.68;77.53
45763;BME280;37512;52.408;13.356;2023-02-02T15:20:45;101484.28;;;5.62;78.24
45763;BME280;37512;52.408;13.356;2023-02-02T15:24:49;101495.53;;;5.30;79.09
45763;BME280;37512;52.408;13.356;2023-02-02T15:28:59;101508.00;;;5.50;78.31
45763;BME280;37512;52.408;13.356;2023-02-02T15:33:09;101514.97;;;5.33;79.26
45763;BME280;37512;52.408;13.356;2023-02-02T15:37:39;101530.91;;;5.22;80.17
45763;BME280;37512;52.408;13.356;2023-02-02T15:41:43;101535.63;;;4.94;83.00
45763;BME280;37512;52.408;13.356;2023-02-02T15:45:48;101545.41;;;4.59;84.92
45763;BME280;37512;52.408;13.356;2023-02-02T15:49:52;101570.47;;;4.71;85.62
45763;BME280;37512;52.408;13.356;2023-02-02T15:53:54;101560.28;;;4.86;89.60
45763;BME280;37512;52.408;13.356;2023-02-02T15:57:55;101565.19;;;4.61;87.00
45763;BME280;37512;52.408;13.356;2023-02-02T16:06:06;101600.94;;;4.28;88.91
45763;BME280;37512;52.408;13.356;2023-02-02T16:10:17;101602.75;;;4.52;88.51
45763;BME280;37512;52.408;13.356;2023-02-02T16:14:20;101612.59;;;4.53;88.19
45763;BME280;37512;52.408;13.356;2023-02-02T16:18:22;101625.94;;;4.46;89.35
45763;BME280;37512;52.408;13.356;2023-02-02T16:22:23;101637.41;;;4.34;90.18
45763;BME280;37512;52.408;13.356;2023-02-02T16:26:28;101640.41;;;4.00;93.66
45763;BME280;37512;52.408;13.356;2023-02-02T16:30:32;101658.44;;;3.87;92.19
45763;BME280;37512;52.408;13.356;2023-02-02T16:38:43;101662.59;;;3.84;93.06
45763;BME280;37512;52.408;13.356;2023-02-02T16:42:44;101678.72;;;3.72;94.06
45763;BME280;37512;52.408;13.356;2023-02-02T16:46:47;101684.34;;;3.81;93.86
45763;BME280;37512;52.408;13.356;2023-02-02T16:55:07;101690.88;;;3.66;93.41
45763;BME280;37512;52.408;13.356;2023-02-02T16:59:32;101699.81;;;3.04;93.89
45763;BME280;37512;52.408;13.356;2023-02-02T17:03:37;101704.13;;;3.34;94.25
45763;BME280;37512;52.408;13.356;2023-02-02T17:07:48;101715.28;;;3.43;94.85
45763;BME280;37512;52.408;13.356;2023-02-02T17:11:56;101721.19;;;3.55;93.69
45763;BME280;37512;52.408;13.356;2023-02-02T17:16:01;101732.72;;;3.28;93.89
45763;BME280;37512;52.408;13.356;2023-02-02T17:20:04;101731.38;;;3.31;94.39
45763;BME280;37512;52.408;13.356;2023-02-02T17:24:10;101728.66;;;3.26;94.60
45763;BME280;37512;52.408;13.356;2023-02-02T17:28:15;101738.09;;;3.14;96.31
45763;BME280;37512;52.408;13.356;2023-02-02T17:32:18;101741.56;;;2.96;97.32
45763;BME280;37512;52.408;13.356;2023-02-02T17:36:19;101747.09;;;2.91;98.55
45763;BME280;37512;52.408;13.356;2023-02-02T17:40:24;101754.53;;;3.20;96.44
45763;BME280;37512;52.408;13.356;2023-02-02T17:44:26;101768.47;;;3.23;94.91
45763;BME280;37512;52.408;13.356;2023-02-02T17:48:27;101769.47;;;3.03;97.13
45763;BME280;37512;52.408;13.356;2023-02-02T17:52:29;101793.16;;;2.55;100.00
45763;BME280;37512;52.408;13.356;2023-02-02T17:56:30;101789.50;;;2.69;100.00
45763;BME280;37512;52.408;13.356;2023-02-02T18:00:33;101796.56;;;2.76;98.75
45763;BME280;37512;52.408;13.356;2023-02-02T18:04:35;101784.63;;;2.61;100.00
45763;BME280;37512;52.408;13.356;2023-02-02T18:08:36;101791.28;;;2.50;100.00
45763;BME280;37512;52.408;13.356;2023-02-02T18:12:38;101799.13;;;2.22;100.00
45763;BME280;37512;52.408;13.356;2023-02-02T18:16:40;101797.22;;;2.18;100.00
45763;BME280;37512;52.408;13.356;2023-02-02T18:20:42;101797.81;;;2.09;100.00
45763;BME280;37512;52.408;13.356;2023-02-02T18:24:44;101804.16;;;2.00;100.00
45763;BME280;37512;52.408;13.356;2023-02-02T18:28:45;101801.44;;;1.95;100.00
45763;BME280;37512;52.408;13.356;2023-02-02T18:32:50;101805.03;;;1.80;100.00
45763;BME280;37512;52.408;13.356;2023-02-02T18:36:51;101801.25;;;1.71;100.00
45763;BME280;37512;52.408;13.356;2023-02-02T18:40:55;101799.34;;;1.66;100.00
45763;BME280;37512;52.408;13.356;2023-02-02T18:44:57;101797.78;;;1.39;100.00
45763;BME280;37512;52.408;13.356;2023-02-02T18:48:59;101792.34;;;0.93;100.00
45763;BME280;37512;52.408;13.356;2023-02-02T18:53:00;101787.66;;;1.30;100.00
45763;BME280;37512;52.408;13.356;2023-02-02T18:57:02;101787.38;;;1.36;100.00
45763;BME280;37512;52.408;13.356;2023-02-02T19:01:10;101776.72;;;1.30;100.00
45763;BME280;37512;52.408;13.356;2023-02-02T19:05:12;101784.13;;;1.24;100.00
45763;BME280;37512;52.408;13.356;2023-02-02T19:09:31;101789.06;;;1.17;100.00
45763;BME280;37512;52.408;13.356;2023-02-02T19:13:33;101791.00;;;0.75;100.00
45763;BME280;37512;52.408;13.356;2023-02-02T19:17:35;101793.47;;;1.08;100.00
45763;BME280;37512;52.408;13.356;2023-02-02T19:21:36;101792.63;;;0.87;100.00
45763;BME280;37512;52.408;13.356;2023-02-02T19:25:39;101804.66;;;1.01;100.00
45763;BME280;37512;52.408;13.356;2023-02-02T19:29:41;101799.44;;;0.84;100.00
45763;BME280;37512;52.408;13.356;2023-02-02T19:33:46;101810.38;;;0.84;100.00
45763;BME280;37512;52.408;13.356;2023-02-02T19:37:48;101815.84;;;0.79;100.00
45763;BME280;37512;52.408;13.356;2023-02-02T19:41:53;101809.56;;;0.78;100.00
45763;BME280;37512;52.408;13.356;2023-02-02T19:45:58;101807.13;;;0.67;100.00
45763;BME280;37512;52.408;13.356;2023-02-02T19:50:27;101812.03;;;0.70;100.00
45763;BME280;37512;52.408;13.356;2023-02-02T19:54:37;101813.66;;;0.71;100.00
45763;BME280;37512;52.408;13.356;2023-02-02T19:58:39;101825.41;;;0.56;100.00
45763;BME280;37512;52.408;13.356;2023-02-02T20:02:58;101826.19;;;0.51;100.00
45763;BME280;37512;52.408;13.356;2023-02-02T20:06:59;101821.28;;;0.63;100.00
45763;BME280;37512;52.408;13.356;2023-02-02T20:11:37;101823.22;;;0.68;100.00
45763;BME280;37512;52.408;13.356;2023-02-02T20:15:39;101825.97;;;0.73;100.00
45763;BME280;37512;52.408;13.356;2023-02-02T20:19:44;101819.97;;;0.76;100.00
45763;BME280;37512;52.408;13.356;2023-02-02T20:23:46;101824.78;;;0.23;100.00
45763;BME280;37512;52.408;13.356;2023-02-02T20:27:48;101818.56;;;0.63;100.00
45763;BME280;37512;52.408;13.356;2023-02-02T20:31:52;101825.69;;;0.59;100.00
45763;BME280;37512;52.408;13.356;2023-02-02T20:35:54;101817.78;;;0.73;100.00
45763;BME280;37512;52.408;13.356;2023-02-02T20:40:03;101815.88;;;0.89;100.00
45763;BME280;37512;52.408;13.356;2023-02-02T20:44:06;101807.94;;;0.82;100.00
45763;BME280;37512;52.408;13.356;2023-02-02T20:48:08;101810.38;;;1.04;100.00
45763;BME280;37512;52.408;13.356;2023-02-02T20:52:15;101808.50;;;1.05;100.00
45763;BME280;37512;52.408;13.356;2023-02-02T20:56:23;101793.16;;;0.83;100.00
45763;BME280;37512;52.408;13.356;2023-02-02T21:00:25;101804.88;;;0.43;100.00
45763;BME280;37512;52.408;13.356;2023-02-02T21:04:28;101805.97;;;0.52;100.00
45763;BME280;37512;52.408;13.356;2023-02-02T21:08:29;101800.78;;;0.40;100.00
45763;BME280;37512;52.408;13.356;2023-02-02T21:12:31;101800.75;;;0.25;100.00
45763;BME280;37512;52.408;13.356;2023-02-02T21:16:32;101800.81;;;0.56;100.00
45763;BME280;37512;52.408;13.356;2023-02-02T21:20:34;101796.16;;;0.56;100.00
45763;BME280;37512;52.408;13.356;2023-02-02T21:24:36;101782.22;;;0.68;100.00
45763;BME280;37512;52.408;13.356;2023-02-02T21:28:37;101767.75;;;0.83;100.00
45763;BME280;37512;52.408;13.356;2023-02-02T21:32:39;101768.88;;;0.87;100.00
45763;BME280;37512;52.408;13.356;2023-02-02T21:36:45;101772.13;;;0.69;100.00
45763;BME280;37512;52.408;13.356;2023-02-02T21:40:47;101770.22;;;0.44;100.00
45763;BME280;37512;52.408;13.356;2023-02-02T21:44:52;101766.66;;;0.74;100.00
45763;BME280;37512;52.408;13.356;2023-02-02T21:48:56;101771.31;;;0.83;100.00
45763;BME280;37512;52.408;13.356;2023-02-02T21:53:13;101771.97;;;-0.03;100.00
45763;BME280;37512;52.408;13.356;2023-02-02T21:57:21;101767.44;;;0.23;100.00
45763;BME280;37512;52.408;13.356;2023-02-02T22:01:32;101765.00;;;0.37;100.00
45763;BME280;37512;52.408;13.356;2023-02-02T22:05:35;101759.00;;;0.71;100.00
45763;BME280;37512;52.408;13.356;2023-02-02T22:09:39;101755.47;;;0.80;100.00
45763;BME280;37512;52.408;13.356;2023-02-02T22:13:41;101756.81;;;0.52;100.00
45763;BME280;37512;52.408;13.356;2023-02-02T22:17:43;101753.25;;;0.41;100.00
45763;BME280;37512;52.408;13.356;2023-02-02T22:21:46;101749.72;;;0.61;100.00
45763;BME280;37512;52.408;13.356;2023-02-02T22:25:49;101749.97;;;0.39;100.00
45763;BME280;37512;52.408;13.356;2023-02-02T22:30:00;101742.91;;;0.69;100.00
45763;BME280;37512;52.408;13.356;2023-02-02T22:34:02;101746.16;;;0.76;100.00
45763;BME280;37512;52.408;13.356;2023-02-02T22:38:05;101744.22;;;0.41;100.00
45763;BME280;37512;52.408;13.356;2023-02-02T22:42:06;101746.69;;;0.43;100.00
45763;BME280;37512;52.408;13.356;2023-02-02T22:46:08;101747.25;;;0.70;100.00
45763;BME280;37512;52.408;13.356;2023-02-02T22:50:09;101754.66;;;0.85;100.00
45763;BME280;37512;52.408;13.356;2023-02-02T22:54:11;101746.47;;;0.80;100.00
45763;BME280;37512;52.408;13.356;2023-02-02T22:58:13;101748.06;;;0.91;100.00
45763;BME280;37512;52.408;13.356;2023-02-02T23:02:14;101742.06;;;0.94;100.00
45763;BME280;37512;52.408;13.356;2023-02-02T23:06:15;101737.97;;;0.92;100.00
45763;BME280;37512;52.408;13.356;2023-02-02T23:10:20;101738.78;;;0.92;100.00
45763;BME280;37512;52.408;13.356;2023-02-02T23:14:22;101737.97;;;0.81;100.00
45763;BME280;37512;52.408;13.356;2023-02-02T23:18:23;101736.88;;;0.47;100.00
45763;BME280;37512;52.408;13.356;2023-02-02T23:22:25;101736.28;;;0.24;100.00